6°C
Gosport, Hampshire, United Kingdom
Language:  English
Updated18/01/2021 10:25:00 
 

Nearby METAR Reports

 

EGHI - Southampton Wx Centre, United Kingdom
Distance from station: NW 15mi, 24km
Updated: 18-Jan-2021 10:20:00
Few Clouds
Few Clouds
 Wind from calm
Wind: Calm
Temperature: 5°C
Dew Point: 4°C
Humidity: 93%
Barometer: 1024 hPa
Clouds: Few Clouds
Visibility: 6 miles , 10 km
Cloud details: Few Clouds 1097 m
2021/01/18 10:20 EGHI 181020Z 00000KT 9999 FEW036 05/04 Q1024
EGHH - Bournemouth Airport, United Kingdom
Distance from station: W 30mi, 49km
Updated: 18-Jan-2021 10:20:00
Partly cloudy
Partly cloudy
 Wind from WSW
Wind: WSW 5 mph , 7 km/h
Temperature: 6°C
Wind Chill: 4°C
Dew Point: 5°C
Humidity: 93%
Barometer: 1024 hPa
Clouds: Partly cloudy
Visibility: 6 miles , 10 km
Cloud details: Partly cloudy 1280 m
2021/01/18 10:20 EGHH 181020Z 24004KT 9999 SCT042 06/05 Q1024
EGVP - Middle Wallop Airfield, United Kingdom
Distance from station: NW 31mi, 49km
Updated: 18-Jan-2021 09:50:00
Mostly cloudy
Mostly cloudy
 Wind from S
Wind: S 2 mph , 4 km/h
Temperature: 4°C
Dew Point: 3°C
Humidity: 93%
Barometer: 1023 hPa
Clouds: Mostly cloudy
Visibility: 6 miles , 10 km
Cloud details: Few Clouds 792 m
Partly cloudy 914 m
Mostly cloudy 7620 m
2021/01/18 09:50 EGVP 180950Z 17002KT 9999 FEW026 SCT030 BKN250 04/03 Q1023 NOSIG RMK BLU BLU
 
EGVO - RAF Odiham, United Kingdom
Distance from station: NNE 32mi, 52km
Updated: 18-Jan-2021 09:50:00
Mostly cloudy
Mostly cloudy
 Wind from SW
Wind: SW 8 mph , 13 km/h
Temperature: 4°C
Wind Chill: 1°C
Dew Point: 3°C
Humidity: 93%
Barometer: 1023 hPa
Clouds: Mostly cloudy
Visibility: 6 miles , 10 km
Cloud details: Mostly cloudy 610 m
Mostly cloudy 1067 m
2021/01/18 09:50 EGVO 180950Z 23007KT 9999 BKN020 BKN035 04/03 Q1023 RMK WHT
EGKA - Shoreham Airport, United Kingdom
Distance from station: E 37mi, 59km
Updated: 18-Jan-2021 10:20:00
Few Clouds
Few Clouds
 Wind from W
Wind: W 3 mph , 6 km/h
Temperature: 4°C
Dew Point: 4°C
Humidity: 100%
Barometer: 1024 hPa
Clouds: Few Clouds
Visibility: 6 miles , 10 km
Cloud details: Few Clouds 1280 m
2021/01/18 10:20 EGKA 181020Z 26003KT 9999 FEW042 04/04 Q1024
EGDM - Boscombe Down, United Kingdom
Distance from station: NW 38mi, 61km
Updated: 18-Jan-2021 09:50:00
Mostly cloudy
Mostly cloudy
 Wind from WSW
Wind: WSW 7 mph , 11 km/h
Temperature: 4°C
Wind Chill: 1°C
Dew Point: 3°C
Humidity: 93%
Barometer: 1023 hPa
Clouds: Mostly cloudy
Visibility: 6 miles , 10 km
Cloud details: Few Clouds 610 m
Mostly cloudy 1067 m
2021/01/18 09:50 EGDM 180950Z 25006KT 9999 FEW020 BKN035 04/03 Q1023 NOSIG RMK BLU BLU
 
EGLF - Farnborough, United Kingdom
Distance from station: NNE 38mi, 61km
Updated: 18-Jan-2021 10:20:00
Mostly cloudy
Mostly cloudy
 Wind from WSW
Wind: WSW 7 mph , 11 km/h
Temperature: 5°C
Wind Chill: 2°C
Dew Point: 3°C
Humidity: 87%
Barometer: 1023 hPa
Clouds: Mostly cloudy
Visibility: 6 miles , 10 km
Cloud details: Few Clouds 640 m
Mostly cloudy 1341 m
2021/01/18 10:20 EGLF 181020Z 24006KT 9999 FEW021 BKN044 05/03 Q1023
EGKK - Gatwick Airport, United Kingdom
Distance from station: ENE 49mi, 78km
Updated: 18-Jan-2021 10:20:00
Partly cloudy
Partly cloudy
 Wind from SW
Wind: SW 8 mph , 13 km/h
Temperature: 4°C
Wind Chill: 1°C
Dew Point: 3°C
Humidity: 93%
Barometer: 1023 hPa
Clouds: Partly cloudy
Visibility: 6 miles , 10 km
Cloud details: Partly cloudy 1341 m
2021/01/18 10:20 EGKK 181020Z 23007KT 9999 SCT044 04/03 Q1023
EGLL - Heathrow Airport, United Kingdom
Distance from station: NNE 57mi, 91km
Updated: 18-Jan-2021 09:50:00
Mostly cloudy
Mostly cloudy
 Wind from WSW
Wind: WSW 7 mph , 11 km/h
Temperature: 4°C
Wind Chill: 1°C
Dew Point: 3°C
Humidity: 93%
Barometer: 1023 hPa
Clouds: Mostly cloudy
Visibility: 6 miles , 10 km
Cloud details: Mostly cloudy 1402 m
2021/01/18 09:50 EGLL 180950Z AUTO 25006KT 9999 BKN046 04/03 Q1023 NOSIG
 
EGUB - RAF Benson, United Kingdom
Distance from station: N 58mi, 93km
Updated: 18-Jan-2021 09:50:00
Mostly cloudy
Mostly cloudy
 Wind from SW
Wind: SW 9 mph , 15 km/h
Temperature: 5°C
Wind Chill: 2°C
Dew Point: 4°C
Humidity: 93%
Barometer: 1022 hPa
Clouds: Mostly cloudy
Visibility: 6 miles , 10 km
Cloud details: Few Clouds 1219 m
Partly cloudy 1372 m
Mostly cloudy 7620 m
2021/01/18 09:50 EGUB 180950Z 23008KT 9999 FEW040 SCT045 BKN250 05/04 Q1022 NOSIG RMK BLU BLU
EGWU - RAF Northolt, United Kingdom
Distance from station: NNE 62mi, 99km
Updated: 18-Jan-2021 09:50:00
Mostly cloudy
Mostly cloudy
 Wind from W
Wind: W 8 mph , 13 km/h
Temperature: 4°C
Wind Chill: 1°C
Dew Point: 4°C
Humidity: 100%
Barometer: 1023 hPa
Clouds: Mostly cloudy
Visibility: 6 miles , 10 km
Cloud details: Mostly cloudy 1372 m
Mostly cloudy 7620 m
2021/01/18 09:50 EGWU 180950Z 26007KT 9999 BKN045 BKN250 04/04 Q1023 NOSIG
EGKB - Biggin Hill Airport, United Kingdom
Distance from station: NE 62mi, 100km
Updated: 18-Jan-2021 10:20:00
Partly cloudy
Partly cloudy
 Wind from SW
Wind: SW 9 mph , 15 km/h
Temperature: 4°C
Wind Chill: 1°C
Dew Point: 2°C
Humidity: 87%
Barometer: 1023 hPa
Clouds: Partly cloudy
Visibility: 6 miles , 10 km
Cloud details: Partly cloudy 1097 m
2021/01/18 10:20 EGKB 181020Z 23008KT 200V260 9999 SCT036 04/02 Q1023
 
EGDY - RNAS Yeovilton, United Kingdom
Distance from station: WNW 66mi, 107km
Updated: 18-Jan-2021 10:17:00
Mostly cloudy
Mostly cloudy
 Wind from WSW
Wind: WSW 7 mph , 11 km/h
Temperature: 7°C
Wind Chill: 5°C
Dew Point: 4°C
Humidity: 81%
Barometer: 1023 hPa
Clouds: Mostly cloudy
Visibility: 6 miles , 10 km
Cloud details: Mostly cloudy 1372 m
Mostly cloudy 6096 m
2021/01/18 10:17 EGDY 181017Z 24006KT 9999 BKN045 BKN200 07/04 Q1023 NOSIG RMK BLU BLU
EGUO - Colerne Airfield, United Kingdom
Distance from station: NW 67mi, 108km
Updated: 14-Feb-2019 22:50:00
NOT Current
Clear
Clear
 Wind from ENE
Wind: ENE 1 mph , 2 km/h
Temperature: 1°C
Dew Point: 0°C
Humidity: 93%
Barometer: 1029 hPa
Summary: Clear
Visibility: greater than 7 miles , 10 km
2019/02/14 22:50 EGUO 142250Z 06001KT CAVOK 01/00 Q1029 BLU NOSIG
EGVA - RAF Fairford, United Kingdom
Distance from station: NNW 67mi, 108km
Updated: 18-Jan-2021 10:16:00
Partly cloudy
Partly cloudy
 Wind from SW
Wind: SW 8 mph , 13 km/h
Temperature: 5°C
Wind Chill: 2°C
Dew Point: 5°C
Humidity: 100%
Barometer: 1022 hPa
Clouds: Partly cloudy
Visibility: 6 miles , 10 km
Cloud details: Few Clouds 823 m
Partly cloudy 1158 m
2021/01/18 10:16 EGVA 181016Z AUTO 23007KT 9999 FEW027 SCT038 05/05 A3018 RMK AO2 SLP227 FZRANO $
 
EGVN - RAF Brize Norton, United Kingdom
Distance from station: NNW 71mi, 114km
Updated: 18-Jan-2021 10:20:00
Mostly cloudy
Mostly cloudy
 Wind from SW
Wind: SW 6 mph , 9 km/h
Temperature: 5°C
Wind Chill: 3°C
Dew Point: 4°C
Humidity: 93%
Barometer: 1022 hPa
Clouds: Mostly cloudy
Visibility: 6 miles , 10 km
Cloud details: Partly cloudy 213 m
Mostly cloudy 1219 m
2021/01/18 10:20 EGVN 181020Z 22005KT 9999 SCT007 BKN040 05/04 Q1022 BECMG FEW007 RMK GRN BECMG BLU
EGLC - London City Airport, United Kingdom
Distance from station: NE 71mi, 115km
Updated: 18-Jan-2021 10:20:00
Partly cloudy
Partly cloudy
 Wind from WSW
Wind: WSW 7 mph , 11 km/h
Temperature: 5°C
Wind Chill: 2°C
Dew Point: 3°C
Humidity: 87%
Barometer: 1023 hPa
Clouds: Partly cloudy
Visibility: 6 miles , 10 km
Cloud details: Partly cloudy 1494 m
2021/01/18 10:20 EGLC 181020Z AUTO 25006KT 9999 SCT049 05/03 Q1023
EGGD - Bristol Airport, United Kingdom
Distance from station: WNW 80mi, 128km
Updated: 18-Jan-2021 10:20:00
Mostly cloudy
Mostly cloudy
 Wind from SSW
Wind: SSW 8 mph , 13 km/h
Temperature: 5°C
Wind Chill: 2°C
Dew Point: 4°C
Humidity: 93%
Barometer: 1023 hPa
Clouds: Mostly cloudy
Visibility: 6 miles , 10 km
Cloud details: Few Clouds 122 m
Mostly cloudy 427 m
Mostly cloudy 579 m
2021/01/18 10:20 EGGD 181020Z AUTO 21007KT 9999 FEW004 BKN014 BKN019 05/04 Q1023
 
LFRC - Cherbourg-Maupertus Airport, France
Distance from station: S 81mi, 130km
Updated: 18-Jan-2021 10:00:00
Mostly cloudy
Mostly cloudy
 Wind from WSW
Wind: WSW 5 mph , 7 km/h
Temperature: 7°C
Wind Chill: 6°C
Dew Point: 6°C
Humidity: 93%
Barometer: 1026 hPa
Clouds: Mostly cloudy
Visibility: 6 miles , 10 km
Cloud details: Partly cloudy 244 m
Mostly cloudy 457 m
Mostly cloudy 732 m
2021/01/18 10:00 LFRC 181000Z AUTO 25004KT 210V280 9999 SCT008 BKN015 BKN024 07/06 Q1026 NOSIG
EGGW - Luton Airport, United Kingdom
Distance from station: NNE 82mi, 132km
Updated: 18-Jan-2021 10:20:00
Clear
Clear
 Wind from WSW
Wind: WSW 12 mph , 19 km/h
Temperature: 5°C
Wind Chill: 1°C
Dew Point: 4°C
Humidity: 93%
Barometer: 1022 hPa
Clouds: Clear
Visibility: 6 miles , 10 km
2021/01/18 10:20 EGGW 181020Z AUTO 25010KT 9999 NCD 05/04 Q1022